Time;durP1;ratioP1;P1;durP2;ratioP2;P2;SDS_P1;SDS_P2;PMS_P1;PMS_P2;Temp;Humidity;BMP_temperature;BMP_pressure;BME280_temperature;BME280_humidity;BME280_pressure;Samples;Min_cycle;Max_cycle;Signal;HPM_P1;HPM_P2
2023/09/02 00:01:50;;;;;;;7.43;5.20;;;;;;;;;;4977543;28;20615;-88
2023/09/02 00:04:16;;;;;;;5.93;4.03;;;;;;;;;;4977237;28;20407;-79
2023/09/02 00:06:42;;;;;;;6.17;4.40;;;;;;;;;;4977202;28;20841;-79
2023/09/02 00:09:08;;;;;;;6.40;4.23;;;;;;;;;;4976861;28;20471;-91
2023/09/02 00:11:33;;;;;;;6.80;5.23;;;;;;;;;;4977770;28;20416;-92
2023/09/02 00:13:59;;;;;;;7.57;4.30;;;;;;;;;;4977720;28;20858;-85
2023/09/02 00:16:25;;;;;;;5.07;3.90;;;;;;;;;;4976008;28;20430;-78
2023/09/02 00:18:51;;;;;;;6.57;4.97;;;;;;;;;;4973724;28;20188;-85
2023/09/02 00:21:17;;;;;;;8.90;5.37;;;;;;;;;;4977077;28;20534;-82
2023/09/02 00:23:45;;;;;;;8.50;4.70;;;;;;;;;;4976228;28;20413;-82
2023/09/02 00:26:11;;;;;;;6.00;4.40;;;;;;;;;;4976451;28;20418;-89
2023/09/02 00:28:37;;;;;;;8.83;5.43;;;;;;;;;;4977002;28;20416;-89
2023/09/02 00:31:03;;;;;;;5.83;4.33;;;;;;;;;;4976322;28;20534;-88
2023/09/02 00:33:28;;;;;;;6.33;4.53;;;;;;;;;;4968429;28;20914;-81
2023/09/02 00:35:54;;;;;;;8.23;4.97;;;;;;;;;;4957480;28;20466;-81
2023/09/02 00:38:20;;;;;;;8.10;5.93;;;;;;;;;;4975507;28;20280;-80
2023/09/02 00:40:51;;;;;;;7.53;5.00;;;;;;;;;;4975682;28;20557;-80
2023/09/02 00:43:17;;;;;;;8.03;5.43;;;;;;;;;;4973841;28;20798;-80
2023/09/02 00:45:43;;;;;;;7.03;6.30;;;;;;;;;;4966862;28;20422;-81
2023/09/02 00:48:09;;;;;;;8.73;6.10;;;;;;;;;;4956635;28;20821;-79
2023/09/02 00:50:35;;;;;;;7.33;5.50;;;;;;;;;;4956628;28;20568;-79
2023/09/02 00:53:01;;;;;;;8.93;5.20;;;;;;;;;;4956389;28;20468;-80
2023/09/02 00:55:27;;;;;;;6.50;5.80;;;;;;;;;;4959090;28;20639;-79
2023/09/02 00:57:53;;;;;;;6.37;5.73;;;;;;;;;;4966055;28;20428;-80
2023/09/02 01:00:20;;;;;;;6.30;5.30;;;;;;;;;;4965701;28;20421;-80
2023/09/02 01:02:46;;;;;;;9.53;5.70;;;;;;;;;;4964752;28;20913;-86
2023/09/02 01:05:13;;;;;;;8.10;6.30;;;;;;;;;;4964124;28;20516;-84
2023/09/02 01:07:39;;;;;;;6.53;5.83;;;;;;;;;;4966705;28;20488;-88
2023/09/02 01:10:05;;;;;;;9.00;6.60;;;;;;;;;;4958755;28;20422;-85
2023/09/02 01:12:31;;;;;;;7.70;6.20;;;;;;;;;;4966184;28;20438;-85
2023/09/02 01:14:57;;;;;;;8.43;6.50;;;;;;;;;;4957746;28;20464;-87
2023/09/02 01:17:23;;;;;;;8.40;5.33;;;;;;;;;;4968444;28;20425;-88
2023/09/02 01:19:51;;;;;;;7.03;6.27;;;;;;;;;;4961417;28;20419;-87
2023/09/02 01:22:29;;;;;;;9.73;6.80;;;;;;;;;;4956545;29;20486;-92
2023/09/02 01:25:07;;;;;;;10.80;6.87;;;;;;;;;;4956689;28;20761;-87
2023/09/02 01:27:42;;;;;;;8.43;6.40;;;;;;;;;;4957025;29;20480;-90
2023/09/02 01:30:16;;;;;;;8.37;6.30;;;;;;;;;;4956811;28;20414;-89
2023/09/02 01:32:43;;;;;;;8.27;5.97;;;;;;;;;;4957006;28;20439;-90
2023/09/02 01:35:10;;;;;;;8.47;5.40;;;;;;;;;;4956774;28;20422;-90
2023/09/02 01:37:43;;;;;;;7.57;6.77;;;;;;;;;;4956728;28;20509;-92
2023/09/02 01:40:10;;;;;;;9.80;6.97;;;;;;;;;;4955936;29;20411;-88
2023/09/02 01:42:37;;;;;;;7.90;6.83;;;;;;;;;;4955429;29;20570;-89
2023/09/02 01:45:03;;;;;;;10.97;6.80;;;;;;;;;;4956559;29;20415;-91
2023/09/02 01:47:29;;;;;;;10.90;7.80;;;;;;;;;;4956742;29;20474;-89
2023/09/02 01:49:55;;;;;;;8.27;5.90;;;;;;;;;;4956463;29;20833;-90
2023/09/02 01:52:21;;;;;;;9.00;6.93;;;;;;;;;;4956636;29;20930;-90
2023/09/02 01:54:48;;;;;;;8.47;6.57;;;;;;;;;;4956296;29;20414;-90
2023/09/02 01:57:14;;;;;;;8.10;6.30;;;;;;;;;;4956553;28;20415;-89
2023/09/02 01:59:39;;;;;;;7.07;5.50;;;;;;;;;;4956528;29;20508;-89
2023/09/02 02:02:05;;;;;;;7.00;5.53;;;;;;;;;;4956504;29;20573;-92
2023/09/02 02:04:34;;;;;;;7.03;6.33;;;;;;;;;;4956140;29;20977;-91
2023/09/02 02:07:04;;;;;;;11.53;7.43;;;;;;;;;;4956157;29;20416;-90
2023/09/02 02:09:32;;;;;;;8.67;6.97;;;;;;;;;;4955979;29;20406;-90
2023/09/02 02:12:00;;;;;;;8.13;7.20;;;;;;;;;;4957578;29;20408;-79
2023/09/02 02:14:26;;;;;;;10.77;6.57;;;;;;;;;;4954154;28;20448;-81
2023/09/02 02:16:52;;;;;;;9.37;6.23;;;;;;;;;;4954187;28;20933;-89
2023/09/02 02:19:18;;;;;;;8.50;6.27;;;;;;;;;;4955373;28;20585;-86
2023/09/02 02:21:44;;;;;;;9.07;6.00;;;;;;;;;;4955644;29;20468;-88
2023/09/02 02:24:12;;;;;;;9.53;6.27;;;;;;;;;;4955148;28;20428;-84
2023/09/02 02:26:38;;;;;;;8.30;6.27;;;;;;;;;;4955359;28;20431;-88
2023/09/02 02:29:04;;;;;;;8.93;6.13;;;;;;;;;;4955271;28;20894;-80
2023/09/02 02:31:30;;;;;;;8.43;6.20;;;;;;;;;;4956583;28;20196;-82
2023/09/02 02:33:56;;;;;;;6.03;4.90;;;;;;;;;;4955557;28;20416;-86
2023/09/02 02:36:22;;;;;;;7.50;5.60;;;;;;;;;;4955551;28;20459;-82
2023/09/02 02:38:47;;;;;;;9.93;5.83;;;;;;;;;;4955523;29;20932;-86
2023/09/02 02:41:13;;;;;;;8.87;6.20;;;;;;;;;;4954298;28;20560;-89
2023/09/02 02:43:39;;;;;;;7.67;5.70;;;;;;;;;;4955489;29;20411;-87
2023/09/02 02:46:05;;;;;;;9.30;6.00;;;;;;;;;;4975172;28;20411;-86
2023/09/02 02:48:32;;;;;;;11.20;5.57;;;;;;;;;;4974405;28;20419;-85
2023/09/02 02:50:58;;;;;;;7.07;5.93;;;;;;;;;;4973475;28;20418;-88
2023/09/02 02:53:24;;;;;;;8.70;6.63;;;;;;;;;;4974183;28;20417;-88
2023/09/02 02:55:50;;;;;;;8.63;7.07;;;;;;;;;;4974323;28;20494;-87
2023/09/02 02:58:16;;;;;;;8.50;6.80;;;;;;;;;;4955088;28;20418;-82
2023/09/02 03:00:43;;;;;;;9.90;6.20;;;;;;;;;;4954289;28;20459;-83
2023/09/02 03:03:09;;;;;;;9.40;6.67;;;;;;;;;;4955114;28;20426;-84
2023/09/02 03:05:39;;;;;;;11.07;7.70;;;;;;;;;;4955253;29;20423;-86
2023/09/02 03:08:06;;;;;;;9.03;7.00;;;;;;;;;;4954672;28;20459;-82
2023/09/02 03:10:35;;;;;;;12.00;6.40;;;;;;;;;;4955174;29;20522;-89
2023/09/02 03:13:05;;;;;;;6.53;5.60;;;;;;;;;;4955414;29;20475;-84
2023/09/02 03:15:31;;;;;;;9.47;6.70;;;;;;;;;;4955635;29;20411;-90
2023/09/02 03:17:56;;;;;;;7.37;5.73;;;;;;;;;;4955489;28;20406;-88
2023/09/02 03:20:22;;;;;;;9.60;6.30;;;;;;;;;;4955088;29;20426;-84
2023/09/02 03:22:48;;;;;;;7.67;6.00;;;;;;;;;;4955398;29;20496;-82
2023/09/02 03:25:14;;;;;;;7.77;5.93;;;;;;;;;;4954240;29;20453;-91
2023/09/02 03:27:40;;;;;;;9.07;6.10;;;;;;;;;;4955816;29;20410;-90
2023/09/02 03:30:07;;;;;;;8.30;6.60;;;;;;;;;;4975007;28;20415;-90
2023/09/02 03:32:34;;;;;;;8.10;5.70;;;;;;;;;;4975010;28;20409;-91
2023/09/02 03:35:00;;;;;;;9.00;6.03;;;;;;;;;;4974987;28;20472;-89
2023/09/02 03:37:26;;;;;;;8.17;5.30;;;;;;;;;;4974877;28;20471;-84
2023/09/02 03:39:55;;;;;;;7.70;5.40;;;;;;;;;;4974073;28;20840;-90
2023/09/02 03:42:21;;;;;;;8.00;6.77;;;;;;;;;;4974843;28;20476;-86
2023/09/02 03:44:48;;;;;;;7.33;4.90;;;;;;;;;;4973678;28;20443;-92
2023/09/02 03:47:14;;;;;;;8.50;5.53;;;;;;;;;;4974660;28;20418;-90
2023/09/02 03:49:40;;;;;;;7.23;6.10;;;;;;;;;;4975000;28;20421;-90
2023/09/02 03:52:06;;;;;;;7.40;5.50;;;;;;;;;;4974818;28;20417;-90
2023/09/02 03:54:32;;;;;;;8.20;6.07;;;;;;;;;;4974341;28;20421;-89
2023/09/02 03:56:58;;;;;;;8.47;6.73;;;;;;;;;;4974811;28;20458;-92
2023/09/02 03:59:24;;;;;;;8.97;6.83;;;;;;;;;;4974838;28;20420;-91
2023/09/02 04:01:49;;;;;;;10.53;7.40;;;;;;;;;;4975237;28;20524;-89
2023/09/02 04:04:15;;;;;;;8.10;5.80;;;;;;;;;;4978086;28;20466;-92
2023/09/02 04:06:41;;;;;;;9.87;6.30;;;;;;;;;;4977985;28;20904;-87
2023/09/02 04:09:07;;;;;;;8.77;6.63;;;;;;;;;;4977461;28;20414;-88
2023/09/02 04:11:33;;;;;;;10.43;7.20;;;;;;;;;;4977982;28;20509;-87
2023/09/02 04:14:00;;;;;;;9.53;7.40;;;;;;;;;;4978027;28;20418;-85
2023/09/02 04:16:26;;;;;;;8.93;6.73;;;;;;;;;;4977497;28;20806;-89
2023/09/02 04:18:52;;;;;;;10.67;7.93;;;;;;;;;;4976234;28;20416;-88
2023/09/02 04:21:18;;;;;;;9.10;6.60;;;;;;;;;;4979416;28;20457;-89
2023/09/02 04:23:44;;;;;;;7.00;6.30;;;;;;;;;;4977300;28;20422;-89
2023/09/02 04:26:11;;;;;;;13.30;7.70;;;;;;;;;;4977465;28;20594;-90
2023/09/02 04:28:38;;;;;;;9.90;7.10;;;;;;;;;;4970945;28;20443;-91
2023/09/02 04:31:04;;;;;;;8.10;6.43;;;;;;;;;;4955295;28;20414;-86
2023/09/02 04:33:30;;;;;;;8.50;7.67;;;;;;;;;;4972103;28;20650;-86
2023/09/02 04:35:56;;;;;;;9.93;7.10;;;;;;;;;;4963122;28;20421;-83
2023/09/02 04:38:22;;;;;;;12.00;8.97;;;;;;;;;;4967576;28;20440;-86
2023/09/02 04:40:48;;;;;;;11.00;8.20;;;;;;;;;;4968314;28;20489;-84
2023/09/02 04:43:14;;;;;;;11.50;7.43;;;;;;;;;;4962639;28;20416;-84
2023/09/02 04:45:41;;;;;;;9.63;7.10;;;;;;;;;;4964644;28;20924;-82
2023/09/02 04:48:08;;;;;;;8.03;6.77;;;;;;;;;;4965311;28;20492;-85
2023/09/02 04:50:34;;;;;;;9.07;7.07;;;;;;;;;;4960351;28;20415;-83
2023/09/02 04:53:01;;;;;;;9.00;7.30;;;;;;;;;;4970685;28;20906;-83
2023/09/02 04:55:28;;;;;;;10.07;6.82;;;;;;;;;;4964135;28;20422;-83
2023/09/02 04:57:54;;;;;;;9.13;7.33;;;;;;;;;;4970942;28;20169;-81
2023/09/02 05:00:21;;;;;;;8.70;7.30;;;;;;;;;;4968197;28;20448;-81
2023/09/02 05:02:47;;;;;;;7.63;6.80;;;;;;;;;;4965379;28;20844;-82
2023/09/02 05:05:17;;;;;;;8.50;6.73;;;;;;;;;;4968354;28;20417;-83
2023/09/02 05:07:43;;;;;;;8.60;6.33;;;;;;;;;;4961959;28;20910;-83
2023/09/02 05:10:09;;;;;;;9.57;7.13;;;;;;;;;;4971950;28;20499;-85
2023/09/02 05:12:35;;;;;;;11.63;7.10;;;;;;;;;;4967853;28;20769;-89
2023/09/02 05:15:01;;;;;;;17.60;8.07;;;;;;;;;;4968061;28;20423;-80
2023/09/02 05:17:27;;;;;;;10.80;7.40;;;;;;;;;;4962754;28;20502;-83
2023/09/02 05:19:53;;;;;;;9.97;6.77;;;;;;;;;;4968267;28;20458;-82
2023/09/02 05:22:19;;;;;;;9.07;6.30;;;;;;;;;;4961998;28;21037;-83
2023/09/02 05:24:45;;;;;;;9.30;7.00;;;;;;;;;;4957130;28;20417;-88
2023/09/02 05:27:11;;;;;;;8.17;6.80;;;;;;;;;;4957344;29;20423;-82
2023/09/02 05:29:37;;;;;;;7.00;6.20;;;;;;;;;;4972520;28;20414;-86
2023/09/02 05:32:03;;;;;;;7.63;6.37;;;;;;;;;;4976144;28;20472;-86
2023/09/02 05:34:29;;;;;;;9.93;6.63;;;;;;;;;;4976141;28;20969;-85
2023/09/02 05:36:55;;;;;;;11.17;7.10;;;;;;;;;;4975962;28;20459;-83
2023/09/02 05:39:21;;;;;;;6.93;5.80;;;;;;;;;;4976077;28;20184;-86
2023/09/02 05:41:46;;;;;;;6.73;6.00;;;;;;;;;;4975643;28;20211;-84
2023/09/02 05:44:13;;;;;;;6.67;6.00;;;;;;;;;;4975367;28;20419;-84
2023/09/02 05:46:39;;;;;;;6.00;5.40;;;;;;;;;;4975843;28;20426;-86
2023/09/02 05:49:05;;;;;;;5.80;4.63;;;;;;;;;;4959080;28;20417;-91
2023/09/02 05:51:31;;;;;;;5.73;5.13;;;;;;;;;;4976225;28;20430;-90
2023/09/02 05:53:57;;;;;;;4.53;4.03;;;;;;;;;;4975697;28;20412;-88
2023/09/02 05:56:23;;;;;;;3.93;3.27;;;;;;;;;;4975865;28;20484;-90
2023/09/02 05:58:49;;;;;;;4.13;3.60;;;;;;;;;;4975995;28;20411;-91
2023/09/02 06:01:15;;;;;;;4.17;3.40;;;;;;;;;;4975961;28;20455;-93
2023/09/02 06:03:42;;;;;;;3.87;3.57;;;;;;;;;;4975981;28;20468;-92
2023/09/02 06:06:13;;;;;;;3.00;2.70;;;;;;;;;;4976357;28;20185;-92
2023/09/02 06:08:39;;;;;;;4.00;3.60;;;;;;;;;;4975762;28;20916;-93
2023/09/02 06:11:06;;;;;;;3.53;3.23;;;;;;;;;;4976159;28;20412;-92
2023/09/02 06:13:32;;;;;;;3.60;3.30;;;;;;;;;;4958941;28;20421;-88
2023/09/02 06:15:59;;;;;;;4.20;3.07;;;;;;;;;;4975791;28;20915;-91
2023/09/02 06:18:25;;;;;;;2.60;2.40;;;;;;;;;;4975730;28;20172;-82
2023/09/02 06:20:54;;;;;;;4.73;2.53;;;;;;;;;;4975034;28;20492;-80
2023/09/02 06:23:20;;;;;;;2.50;2.30;;;;;;;;;;4975775;28;20436;-94
2023/09/02 06:25:55;;;;;;;3.87;3.57;;;;;;;;;;4974828;28;20512;-93
2023/09/02 06:28:20;;;;;;;3.27;2.87;;;;;;;;;;4976284;28;20433;-84
2023/09/02 06:30:46;;;;;;;3.20;2.90;;;;;;;;;;4976115;28;20424;-89
2023/09/02 06:33:12;;;;;;;3.00;2.80;;;;;;;;;;4976054;28;20441;-91
2023/09/02 06:35:38;;;;;;;4.37;3.37;;;;;;;;;;4975591;28;20629;-91
2023/09/02 06:38:04;;;;;;;2.40;2.17;;;;;;;;;;4975431;28;20234;-92
2023/09/02 06:40:30;;;;;;;2.97;2.67;;;;;;;;;;4975736;28;20407;-91
2023/09/02 06:42:56;;;;;;;2.57;2.30;;;;;;;;;;4975816;28;20188;-91
2023/09/02 06:45:22;;;;;;;3.83;2.37;;;;;;;;;;4975364;28;20466;-91
2023/09/02 06:47:49;;;;;;;3.83;3.40;;;;;;;;;;4975280;28;20232;-91
2023/09/02 06:50:15;;;;;;;5.10;2.67;;;;;;;;;;4975546;28;20180;-92
2023/09/02 06:52:41;;;;;;;4.80;3.00;;;;;;;;;;4975220;28;20455;-91
2023/09/02 06:55:07;;;;;;;3.53;2.80;;;;;;;;;;4975803;28;20855;-92
2023/09/02 06:57:33;;;;;;;3.60;3.30;;;;;;;;;;4975877;28;20419;-92
2023/09/02 06:59:59;;;;;;;4.40;3.50;;;;;;;;;;4975360;28;20434;-92
2023/09/02 07:02:25;;;;;;;2.87;2.47;;;;;;;;;;4976442;28;20207;-92
2023/09/02 07:04:51;;;;;;;4.07;3.03;;;;;;;;;;4975896;28;20412;-93
2023/09/02 07:07:17;;;;;;;5.03;2.63;;;;;;;;;;4975210;28;20215;-91
2023/09/02 07:09:43;;;;;;;4.23;3.57;;;;;;;;;;4975626;28;20176;-91
2023/09/02 07:12:09;;;;;;;4.43;4.03;;;;;;;;;;4975737;28;20487;-92
2023/09/02 07:14:35;;;;;;;5.60;3.73;;;;;;;;;;4975481;28;20404;-92
2023/09/02 07:17:00;;;;;;;4.33;3.83;;;;;;;;;;4975323;28;20180;-90
2023/09/02 07:19:27;;;;;;;4.13;3.70;;;;;;;;;;4974913;28;20531;-92
2023/09/02 07:21:53;;;;;;;6.27;4.53;;;;;;;;;;4975210;28;20246;-91
2023/09/02 07:24:18;;;;;;;4.23;3.43;;;;;;;;;;4974159;28;20416;-93
2023/09/02 07:26:44;;;;;;;4.73;3.90;;;;;;;;;;4975331;28;20220;-91
2023/09/02 07:29:11;;;;;;;3.90;3.60;;;;;;;;;;4975100;28;20212;-90
2023/09/02 07:31:37;;;;;;;4.10;3.63;;;;;;;;;;4973621;28;20693;-91
2023/09/02 07:34:03;;;;;;;3.73;2.70;;;;;;;;;;4974779;28;20550;-91
2023/09/02 07:36:29;;;;;;;4.50;4.10;;;;;;;;;;4975480;28;20220;-90
2023/09/02 07:38:55;;;;;;;3.40;2.70;;;;;;;;;;4981802;28;20248;-89
2023/09/02 07:41:21;;;;;;;3.43;2.50;;;;;;;;;;4978646;28;20470;-82
2023/09/02 07:43:47;;;;;;;4.77;2.83;;;;;;;;;;4978168;28;20172;-88
2023/09/02 07:46:13;;;;;;;3.07;2.87;;;;;;;;;;4979212;28;20243;-86
2023/09/02 07:48:39;;;;;;;5.07;2.93;;;;;;;;;;4978313;28;20447;-88
2023/09/02 07:51:04;;;;;;;3.43;2.90;;;;;;;;;;4978328;28;20183;-91
2023/09/02 07:53:30;;;;;;;2.30;2.10;;;;;;;;;;4978176;28;20169;-85
2023/09/02 07:55:56;;;;;;;4.63;2.33;;;;;;;;;;4978710;28;20541;-90
2023/09/02 07:58:22;;;;;;;4.37;2.70;;;;;;;;;;4978669;28;20529;-87
2023/09/02 08:00:48;;;;;;;5.57;2.37;;;;;;;;;;4977649;28;20180;-83
2023/09/02 08:03:14;;;;;;;6.43;2.20;;;;;;;;;;4970247;28;20208;-85
2023/09/02 08:05:40;;;;;;;4.30;2.50;;;;;;;;;;4967458;28;20184;-85
2023/09/02 08:08:06;;;;;;;3.93;2.57;;;;;;;;;;4966054;28;20192;-84
2023/09/02 08:10:33;;;;;;;4.50;2.20;;;;;;;;;;4965369;28;20830;-86
2023/09/02 08:12:59;;;;;;;2.93;1.90;;;;;;;;;;4972949;28;20455;-90
2023/09/02 08:15:25;;;;;;;3.53;1.80;;;;;;;;;;4978645;28;20419;-89
2023/09/02 08:17:51;;;;;;;3.80;2.13;;;;;;;;;;4978379;28;20903;-90
2023/09/02 08:20:17;;;;;;;2.50;2.30;;;;;;;;;;4977418;28;20187;-92
2023/09/02 08:22:43;;;;;;;4.03;2.00;;;;;;;;;;4977020;28;20479;-83
2023/09/02 08:25:10;;;;;;;3.63;2.20;;;;;;;;;;4977137;28;20507;-87
2023/09/02 08:27:36;;;;;;;3.63;2.20;;;;;;;;;;4978142;28;20420;-89
2023/09/02 08:30:02;;;;;;;6.67;2.03;;;;;;;;;;4978191;28;20455;-89
2023/09/02 08:32:34;;;;;;;2.40;1.60;;;;;;;;;;4978010;28;20814;-91
2023/09/02 08:35:00;;;;;;;3.10;2.00;;;;;;;;;;4978628;28;20781;-91
2023/09/02 08:37:26;;;;;;;3.63;2.63;;;;;;;;;;4976722;28;20494;-91
2023/09/02 08:39:52;;;;;;;2.40;1.67;;;;;;;;;;4979117;28;20255;-92
2023/09/02 08:42:18;;;;;;;2.60;1.87;;;;;;;;;;4977686;28;20207;-91
2023/09/02 08:44:45;;;;;;;1.90;1.50;;;;;;;;;;4977644;28;20168;-92
2023/09/02 08:47:12;;;;;;;3.07;1.27;;;;;;;;;;4977872;28;20215;-90
2023/09/02 08:49:38;;;;;;;1.60;1.10;;;;;;;;;;4979030;28;20408;-91
2023/09/02 08:52:05;;;;;;;2.33;1.00;;;;;;;;;;4977722;28;20421;-89
2023/09/02 08:54:32;;;;;;;2.40;1.07;;;;;;;;;;4977674;28;20416;-92
2023/09/02 08:56:59;;;;;;;2.63;1.07;;;;;;;;;;4977266;28;20455;-90
2023/09/02 08:59:26;;;;;;;2.83;1.30;;;;;;;;;;4977295;28;20408;-91
2023/09/02 09:01:53;;;;;;;2.10;1.10;;;;;;;;;;4978069;28;20467;-90
2023/09/02 09:04:19;;;;;;;1.60;1.00;;;;;;;;;;4977784;28;20407;-91
2023/09/02 09:06:45;;;;;;;2.10;0.90;;;;;;;;;;4977246;28;20412;-90
2023/09/02 09:09:11;;;;;;;2.43;0.70;;;;;;;;;;4977300;28;20432;-89
2023/09/02 09:11:42;;;;;;;2.40;1.10;;;;;;;;;;4978108;28;20419;-91
2023/09/02 09:14:23;;;;;;;4.10;1.13;;;;;;;;;;4977950;28;20919;-89
2023/09/02 09:16:51;;;;;;;1.63;0.93;;;;;;;;;;4977428;28;20416;-90
2023/09/02 09:19:18;;;;;;;2.00;1.00;;;;;;;;;;4977003;28;20502;-88
2023/09/02 09:21:44;;;;;;;1.57;0.90;;;;;;;;;;4977204;28;20471;-89
2023/09/02 09:24:12;;;;;;;3.03;1.50;;;;;;;;;;4974010;28;20412;-89
2023/09/02 09:26:38;;;;;;;2.20;1.07;;;;;;;;;;4975636;28;20450;-88
2023/09/02 09:29:10;;;;;;;1.80;0.70;;;;;;;;;;4976924;28;20459;-89
2023/09/02 09:31:36;;;;;;;2.50;0.87;;;;;;;;;;4971200;28;20466;-88
2023/09/02 09:34:03;;;;;;;4.90;1.20;;;;;;;;;;4970565;28;20459;-89
2023/09/02 09:36:30;;;;;;;3.50;0.57;;;;;;;;;;4964896;28;20223;-90
2023/09/02 09:38:57;;;;;;;2.47;0.60;;;;;;;;;;4958687;28;20416;-91
2023/09/02 09:41:25;;;;;;;4.83;0.80;;;;;;;;;;4968573;28;20474;-86
2023/09/02 09:44:09;;;;;;;3.27;1.40;;;;;;;;;;4970654;28;21032;-84
2023/09/02 09:46:36;;;;;;;2.73;0.73;;;;;;;;;;4965867;28;20450;-86
2023/09/02 09:49:02;;;;;;;2.00;1.03;;;;;;;;;;4968817;28;20424;-89
2023/09/02 09:51:29;;;;;;;1.13;0.53;;;;;;;;;;4973002;28;20467;-84
2023/09/02 09:53:55;;;;;;;1.87;0.73;;;;;;;;;;4967607;28;20460;-83
2023/09/02 09:56:21;;;;;;;4.73;1.07;;;;;;;;;;4963768;28;20503;-82
2023/09/02 09:58:47;;;;;;;2.40;0.80;;;;;;;;;;4961894;28;20181;-86
2023/09/02 10:01:24;;;;;;;2.60;1.00;;;;;;;;;;4964558;28;20251;-82
2023/09/02 10:03:51;;;;;;;1.13;0.67;;;;;;;;;;4963757;28;20168;-84
2023/09/02 10:06:17;;;;;;;1.57;0.63;;;;;;;;;;4963021;28;20935;-83
2023/09/02 10:08:53;;;;;;;2.20;0.60;;;;;;;;;;4962483;28;20428;-82
2023/09/02 10:11:23;;;;;;;1.10;0.77;;;;;;;;;;4965223;28;20788;-89
2023/09/02 10:13:50;;;;;;;1.30;0.50;;;;;;;;;;4976191;28;20506;-93
2023/09/02 10:16:17;;;;;;;1.00;0.40;;;;;;;;;;4975669;28;20404;-90
2023/09/02 10:18:44;;;;;;;1.00;0.40;;;;;;;;;;4975931;28;20984;-90
2023/09/02 10:21:12;;;;;;;2.40;0.80;;;;;;;;;;4975216;28;20427;-87
2023/09/02 10:23:40;;;;;;;1.20;0.50;;;;;;;;;;4975247;28;21137;-84
2023/09/02 10:26:08;;;;;;;1.73;0.70;;;;;;;;;;4975512;28;20466;-88
2023/09/02 10:28:38;;;;;;;3.57;0.80;;;;;;;;;;4974846;28;20431;-92
2023/09/02 10:31:07;;;;;;;1.73;0.93;;;;;;;;;;4975324;28;20459;-89
2023/09/02 10:33:35;;;;;;;1.73;0.83;;;;;;;;;;4974929;28;20427;-90
2023/09/02 10:36:04;;;;;;;1.90;0.73;;;;;;;;;;4974704;28;20468;-90
2023/09/02 10:38:33;;;;;;;2.20;0.77;;;;;;;;;;4970932;28;20845;-89
2023/09/02 10:41:08;;;;;;;2.10;1.00;;;;;;;;;;4966155;28;20411;-85
2023/09/02 10:43:34;;;;;;;1.17;0.50;;;;;;;;;;4964769;28;20476;-91
2023/09/02 10:46:02;;;;;;;1.93;0.43;;;;;;;;;;4948484;28;20431;-89
2023/09/02 10:48:28;;;;;;;2.37;0.67;;;;;;;;;;4969127;28;20498;-88
2023/09/02 10:50:54;;;;;;;1.50;0.60;;;;;;;;;;4973154;28;20988;-88
2023/09/02 10:53:40;;;;;;;1.10;0.50;;;;;;;;;;4973233;28;20214;-87
2023/09/02 10:56:06;;;;;;;2.00;0.63;;;;;;;;;;4973847;28;20447;-90
2023/09/02 10:58:46;;;;;;;1.90;0.47;;;;;;;;;;4973247;28;20509;-91
2023/09/02 11:01:12;;;;;;;1.27;0.47;;;;;;;;;;4974883;28;20844;-92
2023/09/02 11:03:43;;;;;;;1.47;0.53;;;;;;;;;;4974046;28;20416;-90
2023/09/02 11:06:12;;;;;;;3.17;1.73;;;;;;;;;;4974920;28;20263;-85
2023/09/02 11:08:41;;;;;;;1.00;0.67;;;;;;;;;;4974140;28;20412;-88
2023/09/02 11:11:07;;;;;;;0.80;0.50;;;;;;;;;;4974045;28;20875;-87
2023/09/02 11:13:33;;;;;;;0.73;0.40;;;;;;;;;;4978523;28;20458;-90
2023/09/02 11:16:15;;;;;;;2.30;0.57;;;;;;;;;;4978374;28;20259;-89
2023/09/02 11:18:40;;;;;;;1.50;0.63;;;;;;;;;;4978952;28;20550;-89
2023/09/02 11:21:06;;;;;;;1.00;0.57;;;;;;;;;;4976755;28;20426;-84
2023/09/02 11:23:33;;;;;;;2.00;0.47;;;;;;;;;;4972783;28;20188;-89
2023/09/02 11:26:05;;;;;;;1.43;0.70;;;;;;;;;;4971275;28;20191;-88
2023/09/02 11:28:31;;;;;;;1.30;0.60;;;;;;;;;;4963567;28;20415;-91
2023/09/02 11:31:12;;;;;;;2.40;0.80;;;;;;;;;;4966677;28;20477;-89
2023/09/02 11:33:39;;;;;;;2.23;0.83;;;;;;;;;;4965342;28;20434;-90
2023/09/02 11:36:05;;;;;;;0.63;0.57;;;;;;;;;;4972383;28;20474;-89
2023/09/02 11:38:32;;;;;;;3.27;0.97;;;;;;;;;;4968907;28;20513;-84
2023/09/02 11:40:58;;;;;;;1.27;0.80;;;;;;;;;;4966486;28;20411;-84
2023/09/02 11:43:28;;;;;;;3.13;1.00;;;;;;;;;;4965911;28;20798;-88
2023/09/02 11:45:54;;;;;;;2.13;1.20;;;;;;;;;;4970045;28;20180;-88
2023/09/02 11:48:20;;;;;;;0.97;0.50;;;;;;;;;;4971733;28;20597;-87
2023/09/02 11:50:46;;;;;;;2.07;0.70;;;;;;;;;;4968884;28;20187;-86
2023/09/02 11:53:12;;;;;;;2.67;1.20;;;;;;;;;;4969895;28;20179;-83
2023/09/02 11:55:39;;;;;;;1.23;0.53;;;;;;;;;;4970507;28;20562;-83
2023/09/02 11:58:10;;;;;;;1.33;0.60;;;;;;;;;;4973559;28;20657;-84
2023/09/02 12:00:41;;;;;;;0.70;0.67;;;;;;;;;;4970680;28;20427;-90
2023/09/02 12:03:07;;;;;;;1.90;1.00;;;;;;;;;;4963249;28;20427;-86
2023/09/02 12:05:36;;;;;;;1.07;0.60;;;;;;;;;;4965118;28;20429;-88
2023/09/02 12:08:02;;;;;;;2.37;0.60;;;;;;;;;;4976415;28;20176;-88
2023/09/02 12:10:29;;;;;;;1.03;0.57;;;;;;;;;;4976593;28;20431;-87
2023/09/02 12:12:56;;;;;;;0.70;0.40;;;;;;;;;;4975800;28;20875;-88
2023/09/02 12:15:22;;;;;;;2.03;1.10;;;;;;;;;;4976633;28;20462;-88
2023/09/02 12:17:48;;;;;;;0.70;0.70;;;;;;;;;;4977274;28;20424;-89
2023/09/02 12:20:15;;;;;;;1.97;0.80;;;;;;;;;;4972957;28;20177;-87
2023/09/02 12:22:42;;;;;;;1.00;0.60;;;;;;;;;;4957577;28;20436;-87
2023/09/02 12:25:15;;;;;;;2.30;0.67;;;;;;;;;;4959888;29;20427;-91
2023/09/02 12:27:41;;;;;;;1.73;0.67;;;;;;;;;;4956882;28;20427;-86
2023/09/02 12:30:08;;;;;;;1.37;0.83;;;;;;;;;;4957877;28;20782;-90
2023/09/02 12:32:34;;;;;;;1.23;0.50;;;;;;;;;;4957511;28;20212;-85
2023/09/02 12:35:00;;;;;;;0.90;0.40;;;;;;;;;;4974785;28;20420;-87
2023/09/02 12:37:26;;;;;;;1.27;0.80;;;;;;;;;;4976514;28;20823;-90
2023/09/02 12:39:52;;;;;;;1.53;0.43;;;;;;;;;;4975720;28;20187;-85
2023/09/02 12:42:19;;;;;;;0.90;0.60;;;;;;;;;;4975961;28;20190;-89
2023/09/02 12:44:51;;;;;;;0.90;0.53;;;;;;;;;;4976658;28;20172;-90
2023/09/02 12:47:21;;;;;;;1.80;0.60;;;;;;;;;;4975064;28;20450;-90
2023/09/02 12:49:47;;;;;;;1.03;0.40;;;;;;;;;;4968655;28;20515;-91
2023/09/02 12:52:23;;;;;;;0.80;0.67;;;;;;;;;;4968111;28;20479;-91
2023/09/02 12:55:05;;;;;;;1.90;0.77;;;;;;;;;;4957839;29;20419;-91
2023/09/02 12:57:32;;;;;;;2.50;0.60;;;;;;;;;;4959040;28;20778;-86
2023/09/02 12:59:58;;;;;;;0.90;0.70;;;;;;;;;;4958587;28;20420;-91
2023/09/02 13:02:25;;;;;;;1.67;0.60;;;;;;;;;;4967261;28;20431;-88
2023/09/02 13:04:51;;;;;;;1.00;0.60;;;;;;;;;;4977145;28;20454;-88
2023/09/02 13:07:18;;;;;;;1.50;0.83;;;;;;;;;;4976648;28;20429;-89
2023/09/02 13:09:45;;;;;;;1.80;0.80;;;;;;;;;;4979243;28;21022;-90
2023/09/02 13:12:11;;;;;;;1.33;0.70;;;;;;;;;;4974004;28;20475;-86
2023/09/02 13:14:38;;;;;;;0.77;0.67;;;;;;;;;;4970503;28;20434;-91
2023/09/02 13:17:05;;;;;;;1.03;0.80;;;;;;;;;;4975608;28;20164;-83
2023/09/02 13:19:31;;;;;;;1.13;0.77;;;;;;;;;;4974769;28;20453;-84
2023/09/02 13:21:57;;;;;;;0.90;0.70;;;;;;;;;;4960818;28;20448;-89
2023/09/02 13:24:26;;;;;;;2.13;1.37;;;;;;;;;;4974182;28;20774;-87
2023/09/02 13:26:53;;;;;;;1.43;1.13;;;;;;;;;;4975777;28;20423;-88
2023/09/02 13:29:20;;;;;;;1.53;0.70;;;;;;;;;;4975265;28;20432;-84
2023/09/02 13:31:47;;;;;;;2.10;0.63;;;;;;;;;;4975185;28;20479;-89
2023/09/02 13:34:30;;;;;;;1.50;0.97;;;;;;;;;;4958130;28;20551;-86
2023/09/02 13:37:11;;;;;;;2.80;0.63;;;;;;;;;;4974814;28;20534;-88
2023/09/02 13:39:37;;;;;;;1.80;1.03;;;;;;;;;;4973506;28;20434;-82
2023/09/02 13:42:03;;;;;;;1.73;1.00;;;;;;;;;;4968064;28;20490;-88
2023/09/02 13:44:29;;;;;;;2.63;1.00;;;;;;;;;;4975042;28;20176;-89
2023/09/02 13:46:56;;;;;;;2.90;1.10;;;;;;;;;;4975062;28;20959;-86
2023/09/02 13:49:22;;;;;;;1.20;0.60;;;;;;;;;;4974878;28;20430;-88
2023/09/02 13:51:48;;;;;;;1.80;0.83;;;;;;;;;;4974084;28;20481;-85
2023/09/02 13:54:15;;;;;;;1.33;0.67;;;;;;;;;;4974428;28;20416;-87
2023/09/02 13:56:44;;;;;;;1.80;0.43;;;;;;;;;;4973270;28;20200;-82
2023/09/02 13:59:11;;;;;;;1.53;0.47;;;;;;;;;;4974352;28;20786;-83
2023/09/02 14:01:37;;;;;;;2.30;0.40;;;;;;;;;;4974799;28;20451;-89
2023/09/02 14:04:03;;;;;;;1.50;0.57;;;;;;;;;;4974755;28;20455;-82
2023/09/02 14:06:29;;;;;;;1.63;0.80;;;;;;;;;;4974554;28;20768;-87
2023/09/02 14:09:01;;;;;;;1.70;0.63;;;;;;;;;;4974843;28;20414;-88
2023/09/02 14:11:27;;;;;;;1.43;0.57;;;;;;;;;;4974578;28;20481;-86
2023/09/02 14:13:53;;;;;;;0.90;0.53;;;;;;;;;;4973522;28;20999;-83
2023/09/02 14:16:19;;;;;;;1.77;0.80;;;;;;;;;;4973266;28;20436;-87
2023/09/02 14:18:47;;;;;;;2.30;1.17;;;;;;;;;;4974392;28;20420;-89
2023/09/02 14:21:13;;;;;;;2.03;0.53;;;;;;;;;;4973758;28;20412;-83
2023/09/02 14:23:39;;;;;;;5.50;0.70;;;;;;;;;;4973427;28;20924;-82
2023/09/02 14:26:05;;;;;;;0.97;0.70;;;;;;;;;;4974172;28;20426;-81
2023/09/02 14:28:30;;;;;;;1.80;0.67;;;;;;;;;;4974427;28;20908;-88
2023/09/02 14:30:56;;;;;;;3.80;0.87;;;;;;;;;;4973618;28;20184;-87
2023/09/02 14:33:22;;;;;;;0.90;0.63;;;;;;;;;;4972663;28;20215;-88
2023/09/02 14:35:49;;;;;;;2.10;1.27;;;;;;;;;;4972302;28;20548;-88
2023/09/02 14:38:15;;;;;;;2.37;1.23;;;;;;;;;;4973947;28;20243;-87
2023/09/02 14:40:41;;;;;;;2.10;1.10;;;;;;;;;;4975010;28;20410;-87
2023/09/02 14:43:07;;;;;;;0.80;0.60;;;;;;;;;;4975805;28;20920;-86